sensor_id;sensor_type;location;lat;lon;timestamp;P1;durP1;ratioP1;P2;durP2;ratioP2
32649;SDS011;19055;51.064;3.712;2022-08-02T16:39:03;5.22;;;1.67;;
32649;SDS011;19055;51.064;3.712;2022-08-02T16:41:30;6.47;;;1.45;;
32649;SDS011;19055;51.064;3.712;2022-08-02T16:43:56;5.88;;;1.77;;
32649;SDS011;19055;51.064;3.712;2022-08-02T16:46:22;3.20;;;1.40;;
32649;SDS011;19055;51.064;3.712;2022-08-02T16:48:48;3.38;;;1.20;;
32649;SDS011;19055;51.064;3.712;2022-08-02T16:51:14;3.05;;;1.20;;
32649;SDS011;19055;51.064;3.712;2022-08-02T16:53:40;7.38;;;1.92;;
32649;SDS011;19055;51.064;3.712;2022-08-02T16:56:07;3.28;;;1.40;;
32649;SDS011;19055;51.064;3.712;2022-08-02T16:58:34;5.13;;;1.50;;
32649;SDS011;19055;51.064;3.712;2022-08-02T17:01:00;5.55;;;1.35;;
32649;SDS011;19055;51.064;3.712;2022-08-02T17:03:32;3.92;;;1.42;;
32649;SDS011;19055;51.064;3.712;2022-08-02T17:05:58;3.90;;;1.37;;
32649;SDS011;19055;51.064;3.712;2022-08-02T17:08:25;3.88;;;1.40;;
32649;SDS011;19055;51.064;3.712;2022-08-02T17:10:50;5.70;;;1.20;;
32649;SDS011;19055;51.064;3.712;2022-08-02T17:13:16;4.25;;;1.30;;
32649;SDS011;19055;51.064;3.712;2022-08-02T17:15:42;3.00;;;1.15;;
32649;SDS011;19055;51.064;3.712;2022-08-02T17:18:08;4.10;;;1.17;;
32649;SDS011;19055;51.064;3.712;2022-08-02T17:20:34;3.05;;;1.55;;
32649;SDS011;19055;51.064;3.712;2022-08-02T17:23:00;6.45;;;1.42;;
32649;SDS011;19055;51.064;3.712;2022-08-02T17:25:26;7.03;;;1.83;;
32649;SDS011;19055;51.064;3.712;2022-08-02T17:27:52;4.95;;;1.23;;
32649;SDS011;19055;51.064;3.712;2022-08-02T17:30:19;4.88;;;1.15;;
32649;SDS011;19055;51.064;3.712;2022-08-02T17:32:45;2.90;;;1.27;;
32649;SDS011;19055;51.064;3.712;2022-08-02T17:35:11;2.67;;;1.38;;
32649;SDS011;19055;51.064;3.712;2022-08-02T17:37:37;8.63;;;1.52;;
32649;SDS011;19055;51.064;3.712;2022-08-02T17:40:04;7.43;;;1.35;;
32649;SDS011;19055;51.064;3.712;2022-08-02T17:42:31;7.30;;;1.40;;
32649;SDS011;19055;51.064;3.712;2022-08-02T17:44:57;7.65;;;1.38;;
32649;SDS011;19055;51.064;3.712;2022-08-02T17:47:24;6.30;;;1.65;;
32649;SDS011;19055;51.064;3.712;2022-08-02T17:49:50;4.93;;;1.50;;
32649;SDS011;19055;51.064;3.712;2022-08-02T17:52:18;3.60;;;1.25;;
32649;SDS011;19055;51.064;3.712;2022-08-02T17:54:45;3.60;;;1.23;;
32649;SDS011;19055;51.064;3.712;2022-08-02T17:57:11;6.90;;;1.50;;
32649;SDS011;19055;51.064;3.712;2022-08-02T17:59:37;4.28;;;1.20;;
32649;SDS011;19055;51.064;3.712;2022-08-02T18:02:03;3.95;;;1.67;;
32649;SDS011;19055;51.064;3.712;2022-08-02T18:04:29;2.95;;;1.33;;
32649;SDS011;19055;51.064;3.712;2022-08-02T18:06:57;5.05;;;1.65;;
32649;SDS011;19055;51.064;3.712;2022-08-02T18:09:26;4.45;;;1.23;;
32649;SDS011;19055;51.064;3.712;2022-08-02T18:11:53;9.25;;;1.52;;
32649;SDS011;19055;51.064;3.712;2022-08-02T18:14:20;9.88;;;1.90;;
32649;SDS011;19055;51.064;3.712;2022-08-02T18:16:46;4.97;;;1.48;;
32649;SDS011;19055;51.064;3.712;2022-08-02T18:19:13;4.75;;;1.27;;
32649;SDS011;19055;51.064;3.712;2022-08-02T18:21:40;5.40;;;1.38;;
32649;SDS011;19055;51.064;3.712;2022-08-02T18:24:06;2.83;;;1.17;;
32649;SDS011;19055;51.064;3.712;2022-08-02T18:26:32;3.92;;;1.45;;
32649;SDS011;19055;51.064;3.712;2022-08-02T18:28:59;3.10;;;1.20;;
32649;SDS011;19055;51.064;3.712;2022-08-02T18:31:30;4.65;;;1.25;;
32649;SDS011;19055;51.064;3.712;2022-08-02T18:33:56;6.70;;;1.50;;
32649;SDS011;19055;51.064;3.712;2022-08-02T18:36:22;2.42;;;1.10;;
32649;SDS011;19055;51.064;3.712;2022-08-02T18:38:48;2.88;;;1.40;;
32649;SDS011;19055;51.064;3.712;2022-08-02T18:41:14;4.05;;;1.30;;
32649;SDS011;19055;51.064;3.712;2022-08-02T18:43:39;4.15;;;1.60;;
32649;SDS011;19055;51.064;3.712;2022-08-02T18:46:07;5.72;;;1.42;;
32649;SDS011;19055;51.064;3.712;2022-08-02T18:48:38;6.30;;;1.55;;
32649;SDS011;19055;51.064;3.712;2022-08-02T18:51:05;6.60;;;1.35;;
32649;SDS011;19055;51.064;3.712;2022-08-02T18:53:31;5.72;;;1.45;;
32649;SDS011;19055;51.064;3.712;2022-08-02T18:55:58;6.18;;;1.30;;
32649;SDS011;19055;51.064;3.712;2022-08-02T18:58:24;3.70;;;1.50;;
32649;SDS011;19055;51.064;3.712;2022-08-02T19:00:50;4.68;;;2.03;;
32649;SDS011;19055;51.064;3.712;2022-08-02T19:03:16;3.10;;;1.70;;
32649;SDS011;19055;51.064;3.712;2022-08-02T19:05:46;5.43;;;1.50;;
32649;SDS011;19055;51.064;3.712;2022-08-02T19:08:12;8.35;;;1.42;;
32649;SDS011;19055;51.064;3.712;2022-08-02T19:10:38;5.07;;;1.65;;
32649;SDS011;19055;51.064;3.712;2022-08-02T19:13:05;4.40;;;1.70;;
32649;SDS011;19055;51.064;3.712;2022-08-02T19:15:31;3.53;;;1.67;;
32649;SDS011;19055;51.064;3.712;2022-08-02T19:17:58;6.25;;;1.50;;
32649;SDS011;19055;51.064;3.712;2022-08-02T19:20:26;2.80;;;1.40;;
32649;SDS011;19055;51.064;3.712;2022-08-02T19:22:52;3.47;;;1.52;;
32649;SDS011;19055;51.064;3.712;2022-08-02T19:25:18;4.78;;;1.45;;
32649;SDS011;19055;51.064;3.712;2022-08-02T19:27:44;3.28;;;1.60;;
32649;SDS011;19055;51.064;3.712;2022-08-02T19:30:10;4.20;;;1.80;;
32649;SDS011;19055;51.064;3.712;2022-08-02T19:32:36;6.70;;;2.03;;
32649;SDS011;19055;51.064;3.712;2022-08-02T19:35:03;7.20;;;1.70;;
32649;SDS011;19055;51.064;3.712;2022-08-02T19:37:29;7.55;;;2.22;;
32649;SDS011;19055;51.064;3.712;2022-08-02T19:39:55;6.55;;;2.35;;
32649;SDS011;19055;51.064;3.712;2022-08-02T19:42:22;7.43;;;1.95;;
32649;SDS011;19055;51.064;3.712;2022-08-02T19:44:47;3.80;;;1.90;;
32649;SDS011;19055;51.064;3.712;2022-08-02T19:47:14;6.85;;;1.73;;
32649;SDS011;19055;51.064;3.712;2022-08-02T19:49:40;5.55;;;1.80;;
32649;SDS011;19055;51.064;3.712;2022-08-02T19:52:06;4.95;;;1.98;;
32649;SDS011;19055;51.064;3.712;2022-08-02T19:54:35;5.80;;;2.08;;
32649;SDS011;19055;51.064;3.712;2022-08-02T19:57:02;5.82;;;2.30;;
32649;SDS011;19055;51.064;3.712;2022-08-02T19:59:28;4.03;;;2.00;;
32649;SDS011;19055;51.064;3.712;2022-08-02T20:01:55;6.65;;;2.13;;
32649;SDS011;19055;51.064;3.712;2022-08-02T20:04:21;3.47;;;2.10;;
32649;SDS011;19055;51.064;3.712;2022-08-02T20:06:46;3.22;;;1.33;;
32649;SDS011;19055;51.064;3.712;2022-08-02T20:09:17;10.23;;;2.13;;
32649;SDS011;19055;51.064;3.712;2022-08-02T20:11:44;7.03;;;1.92;;
32649;SDS011;19055;51.064;3.712;2022-08-02T20:14:10;2.38;;;1.50;;
32649;SDS011;19055;51.064;3.712;2022-08-02T20:16:36;8.57;;;1.90;;
32649;SDS011;19055;51.064;3.712;2022-08-02T20:19:03;3.08;;;1.40;;
32649;SDS011;19055;51.064;3.712;2022-08-02T20:21:30;3.35;;;1.85;;
32649;SDS011;19055;51.064;3.712;2022-08-02T20:23:56;4.57;;;2.22;;
32649;SDS011;19055;51.064;3.712;2022-08-02T20:26:22;7.38;;;2.30;;
32649;SDS011;19055;51.064;3.712;2022-08-02T20:28:50;4.57;;;1.88;;
32649;SDS011;19055;51.064;3.712;2022-08-02T20:31:16;8.88;;;2.08;;
32649;SDS011;19055;51.064;3.712;2022-08-02T20:33:42;8.10;;;1.70;;
32649;SDS011;19055;51.064;3.712;2022-08-02T20:36:07;4.13;;;1.55;;
32649;SDS011;19055;51.064;3.712;2022-08-02T20:38:33;5.60;;;1.60;;
32649;SDS011;19055;51.064;3.712;2022-08-02T20:41:03;5.88;;;2.00;;
32649;SDS011;19055;51.064;3.712;2022-08-02T20:43:29;5.65;;;1.83;;
32649;SDS011;19055;51.064;3.712;2022-08-02T20:45:55;6.50;;;1.70;;
32649;SDS011;19055;51.064;3.712;2022-08-02T20:48:22;5.60;;;2.15;;
32649;SDS011;19055;51.064;3.712;2022-08-02T20:50:47;7.35;;;2.05;;
32649;SDS011;19055;51.064;3.712;2022-08-02T20:53:15;9.00;;;1.85;;
32649;SDS011;19055;51.064;3.712;2022-08-02T20:55:46;5.10;;;1.80;;
32649;SDS011;19055;51.064;3.712;2022-08-02T20:58:14;8.77;;;2.30;;
32649;SDS011;19055;51.064;3.712;2022-08-02T21:00:41;4.75;;;2.10;;
32649;SDS011;19055;51.064;3.712;2022-08-02T21:03:07;8.77;;;2.08;;
32649;SDS011;19055;51.064;3.712;2022-08-02T21:05:35;5.55;;;1.60;;
32649;SDS011;19055;51.064;3.712;2022-08-02T21:08:03;4.07;;;2.05;;
32649;SDS011;19055;51.064;3.712;2022-08-02T21:10:33;6.10;;;1.52;;
32649;SDS011;19055;51.064;3.712;2022-08-02T21:13:00;5.47;;;1.85;;
32649;SDS011;19055;51.064;3.712;2022-08-02T21:15:27;5.25;;;1.88;;
32649;SDS011;19055;51.064;3.712;2022-08-02T21:17:53;8.23;;;1.83;;
32649;SDS011;19055;51.064;3.712;2022-08-02T21:20:19;6.05;;;1.90;;
32649;SDS011;19055;51.064;3.712;2022-08-02T21:22:45;5.30;;;1.85;;
32649;SDS011;19055;51.064;3.712;2022-08-02T21:25:11;7.95;;;2.00;;
32649;SDS011;19055;51.064;3.712;2022-08-02T21:27:37;6.90;;;1.85;;
32649;SDS011;19055;51.064;3.712;2022-08-02T21:30:04;10.23;;;1.95;;
32649;SDS011;19055;51.064;3.712;2022-08-02T21:32:31;7.65;;;2.30;;
32649;SDS011;19055;51.064;3.712;2022-08-02T21:34:56;11.70;;;2.28;;
32649;SDS011;19055;51.064;3.712;2022-08-02T21:37:22;8.52;;;2.60;;
32649;SDS011;19055;51.064;3.712;2022-08-02T21:39:48;7.32;;;2.28;;
32649;SDS011;19055;51.064;3.712;2022-08-02T21:42:14;3.63;;;1.45;;
32649;SDS011;19055;51.064;3.712;2022-08-02T21:44:40;6.55;;;1.50;;
32649;SDS011;19055;51.064;3.712;2022-08-02T21:47:06;8.25;;;2.33;;
32649;SDS011;19055;51.064;3.712;2022-08-02T21:49:33;8.38;;;2.38;;
32649;SDS011;19055;51.064;3.712;2022-08-02T21:51:59;9.75;;;2.75;;
32649;SDS011;19055;51.064;3.712;2022-08-02T21:54:25;9.68;;;2.35;;
32649;SDS011;19055;51.064;3.712;2022-08-02T21:56:51;11.88;;;2.45;;
32649;SDS011;19055;51.064;3.712;2022-08-02T21:59:17;10.13;;;4.88;;
32649;SDS011;19055;51.064;3.712;2022-08-02T22:01:45;9.80;;;2.67;;
32649;SDS011;19055;51.064;3.712;2022-08-02T22:04:10;8.90;;;2.20;;
32649;SDS011;19055;51.064;3.712;2022-08-02T22:06:37;7.97;;;2.13;;
32649;SDS011;19055;51.064;3.712;2022-08-02T22:09:03;5.53;;;1.70;;
32649;SDS011;19055;51.064;3.712;2022-08-02T22:11:29;9.35;;;2.72;;
32649;SDS011;19055;51.064;3.712;2022-08-02T22:14:00;13.98;;;2.63;;
32649;SDS011;19055;51.064;3.712;2022-08-02T22:16:26;7.30;;;2.22;;
32649;SDS011;19055;51.064;3.712;2022-08-02T22:18:52;10.43;;;2.42;;
32649;SDS011;19055;51.064;3.712;2022-08-02T22:21:18;9.20;;;2.67;;
32649;SDS011;19055;51.064;3.712;2022-08-02T22:23:45;7.03;;;2.20;;
32649;SDS011;19055;51.064;3.712;2022-08-02T22:26:10;10.07;;;2.38;;
32649;SDS011;19055;51.064;3.712;2022-08-02T22:28:36;6.53;;;2.05;;
32649;SDS011;19055;51.064;3.712;2022-08-02T22:31:02;9.02;;;2.35;;
32649;SDS011;19055;51.064;3.712;2022-08-02T22:33:31;7.43;;;2.40;;
32649;SDS011;19055;51.064;3.712;2022-08-02T22:36:15;9.05;;;2.25;;
32649;SDS011;19055;51.064;3.712;2022-08-02T22:38:42;4.80;;;1.90;;
32649;SDS011;19055;51.064;3.712;2022-08-02T22:41:08;7.68;;;1.77;;
32649;SDS011;19055;51.064;3.712;2022-08-02T22:43:34;7.05;;;2.17;;
32649;SDS011;19055;51.064;3.712;2022-08-02T22:46:00;14.68;;;2.33;;
32649;SDS011;19055;51.064;3.712;2022-08-02T22:48:26;5.65;;;2.20;;
32649;SDS011;19055;51.064;3.712;2022-08-02T22:50:52;4.82;;;1.80;;
32649;SDS011;19055;51.064;3.712;2022-08-02T22:53:18;6.88;;;2.53;;
32649;SDS011;19055;51.064;3.712;2022-08-02T22:55:43;7.68;;;2.30;;
32649;SDS011;19055;51.064;3.712;2022-08-02T22:58:09;9.93;;;2.15;;
32649;SDS011;19055;51.064;3.712;2022-08-02T23:00:36;6.78;;;2.25;;
32649;SDS011;19055;51.064;3.712;2022-08-02T23:03:02;5.43;;;1.73;;
32649;SDS011;19055;51.064;3.712;2022-08-02T23:05:28;6.93;;;2.55;;
32649;SDS011;19055;51.064;3.712;2022-08-02T23:07:55;9.93;;;2.03;;
32649;SDS011;19055;51.064;3.712;2022-08-02T23:10:20;6.15;;;2.05;;
32649;SDS011;19055;51.064;3.712;2022-08-02T23:12:46;6.45;;;2.15;;
32649;SDS011;19055;51.064;3.712;2022-08-02T23:15:12;6.72;;;2.13;;
32649;SDS011;19055;51.064;3.712;2022-08-02T23:17:38;7.75;;;2.38;;
32649;SDS011;19055;51.064;3.712;2022-08-02T23:20:24;6.95;;;2.45;;
32649;SDS011;19055;51.064;3.712;2022-08-02T23:22:50;8.63;;;2.63;;
32649;SDS011;19055;51.064;3.712;2022-08-02T23:25:17;9.35;;;3.17;;
32649;SDS011;19055;51.064;3.712;2022-08-02T23:27:43;7.35;;;2.22;;
32649;SDS011;19055;51.064;3.712;2022-08-02T23:30:09;10.90;;;2.67;;
32649;SDS011;19055;51.064;3.712;2022-08-02T23:32:38;10.63;;;2.83;;
32649;SDS011;19055;51.064;3.712;2022-08-02T23:35:05;6.32;;;2.55;;
32649;SDS011;19055;51.064;3.712;2022-08-02T23:37:31;11.50;;;2.55;;
32649;SDS011;19055;51.064;3.712;2022-08-02T23:39:57;9.02;;;2.90;;
32649;SDS011;19055;51.064;3.712;2022-08-02T23:42:23;7.32;;;2.35;;
32649;SDS011;19055;51.064;3.712;2022-08-02T23:44:49;10.20;;;2.38;;
32649;SDS011;19055;51.064;3.712;2022-08-02T23:47:16;10.18;;;2.40;;
32649;SDS011;19055;51.064;3.712;2022-08-02T23:49:42;7.80;;;2.10;;
32649;SDS011;19055;51.064;3.712;2022-08-02T23:52:08;8.80;;;2.38;;
32649;SDS011;19055;51.064;3.712;2022-08-02T23:54:34;8.48;;;2.28;;
32649;SDS011;19055;51.064;3.712;2022-08-02T23:56:59;12.68;;;2.58;;
32649;SDS011;19055;51.064;3.712;2022-08-02T23:59:25;11.10;;;2.63;;
